sensor_id;sensor_type;location;lat;lon;timestamp;P1;durP1;ratioP1;P2;durP2;ratioP2
16314;SDS011;8266;52.150;4.768;2023-12-07T00:01:43;6.65;;;5.97;;
16314;SDS011;8266;52.150;4.768;2023-12-07T00:04:10;7.32;;;6.50;;
16314;SDS011;8266;52.150;4.768;2023-12-07T00:06:37;7.57;;;6.80;;
16314;SDS011;8266;52.150;4.768;2023-12-07T00:09:04;8.93;;;7.30;;
16314;SDS011;8266;52.150;4.768;2023-12-07T00:11:32;7.32;;;6.60;;
16314;SDS011;8266;52.150;4.768;2023-12-07T00:13:59;7.47;;;6.80;;
16314;SDS011;8266;52.150;4.768;2023-12-07T00:16:26;6.80;;;6.10;;
16314;SDS011;8266;52.150;4.768;2023-12-07T00:18:53;7.03;;;6.07;;
16314;SDS011;8266;52.150;4.768;2023-12-07T00:21:20;7.95;;;6.82;;
16314;SDS011;8266;52.150;4.768;2023-12-07T00:23:47;7.38;;;5.82;;
16314;SDS011;8266;52.150;4.768;2023-12-07T00:26:14;8.18;;;6.53;;
16314;SDS011;8266;52.150;4.768;2023-12-07T00:28:42;7.70;;;6.30;;
16314;SDS011;8266;52.150;4.768;2023-12-07T00:31:09;5.97;;;5.38;;
16314;SDS011;8266;52.150;4.768;2023-12-07T00:33:35;7.13;;;6.03;;
16314;SDS011;8266;52.150;4.768;2023-12-07T00:36:02;6.70;;;6.00;;
16314;SDS011;8266;52.150;4.768;2023-12-07T00:38:30;6.60;;;5.82;;
16314;SDS011;8266;52.150;4.768;2023-12-07T00:40:57;6.75;;;5.72;;
16314;SDS011;8266;52.150;4.768;2023-12-07T00:43:24;6.80;;;6.13;;
16314;SDS011;8266;52.150;4.768;2023-12-07T00:45:53;6.95;;;6.10;;
16314;SDS011;8266;52.150;4.768;2023-12-07T00:48:20;6.78;;;5.93;;
16314;SDS011;8266;52.150;4.768;2023-12-07T00:50:47;6.75;;;5.82;;
16314;SDS011;8266;52.150;4.768;2023-12-07T00:53:14;6.85;;;5.88;;
16314;SDS011;8266;52.150;4.768;2023-12-07T00:55:41;7.03;;;6.05;;
16314;SDS011;8266;52.150;4.768;2023-12-07T00:58:08;7.13;;;5.93;;
16314;SDS011;8266;52.150;4.768;2023-12-07T01:00:35;8.82;;;6.20;;
16314;SDS011;8266;52.150;4.768;2023-12-07T01:03:04;5.90;;;5.15;;
16314;SDS011;8266;52.150;4.768;2023-12-07T01:05:31;7.70;;;5.90;;
16314;SDS011;8266;52.150;4.768;2023-12-07T01:07:58;8.65;;;6.50;;
16314;SDS011;8266;52.150;4.768;2023-12-07T01:10:25;8.40;;;5.95;;
16314;SDS011;8266;52.150;4.768;2023-12-07T01:12:52;9.23;;;6.43;;
16314;SDS011;8266;52.150;4.768;2023-12-07T01:15:19;7.38;;;6.10;;
16314;SDS011;8266;52.150;4.768;2023-12-07T01:17:46;6.72;;;5.88;;
16314;SDS011;8266;52.150;4.768;2023-12-07T01:20:14;7.10;;;5.75;;
16314;SDS011;8266;52.150;4.768;2023-12-07T01:22:42;7.22;;;6.13;;
16314;SDS011;8266;52.150;4.768;2023-12-07T01:25:11;6.75;;;6.10;;
16314;SDS011;8266;52.150;4.768;2023-12-07T01:27:42;6.22;;;5.63;;
16314;SDS011;8266;52.150;4.768;2023-12-07T01:30:09;6.45;;;5.72;;
16314;SDS011;8266;52.150;4.768;2023-12-07T01:32:37;5.85;;;5.25;;
16314;SDS011;8266;52.150;4.768;2023-12-07T01:35:04;6.57;;;5.32;;
16314;SDS011;8266;52.150;4.768;2023-12-07T01:37:33;6.45;;;5.63;;
16314;SDS011;8266;52.150;4.768;2023-12-07T01:40:00;7.45;;;5.78;;
16314;SDS011;8266;52.150;4.768;2023-12-07T01:42:30;6.72;;;5.85;;
16314;SDS011;8266;52.150;4.768;2023-12-07T01:44:57;6.50;;;5.63;;
16314;SDS011;8266;52.150;4.768;2023-12-07T01:47:25;6.75;;;5.72;;
16314;SDS011;8266;52.150;4.768;2023-12-07T01:49:52;5.82;;;5.32;;
16314;SDS011;8266;52.150;4.768;2023-12-07T01:52:20;6.32;;;5.72;;
16314;SDS011;8266;52.150;4.768;2023-12-07T01:54:55;6.13;;;5.43;;
16314;SDS011;8266;52.150;4.768;2023-12-07T01:57:22;5.85;;;5.30;;
16314;SDS011;8266;52.150;4.768;2023-12-07T01:59:50;6.13;;;5.38;;
16314;SDS011;8266;52.150;4.768;2023-12-07T02:02:17;5.97;;;5.35;;
16314;SDS011;8266;52.150;4.768;2023-12-07T02:04:44;6.18;;;5.55;;
16314;SDS011;8266;52.150;4.768;2023-12-07T02:07:11;6.70;;;6.10;;
16314;SDS011;8266;52.150;4.768;2023-12-07T02:09:38;6.47;;;5.88;;
16314;SDS011;8266;52.150;4.768;2023-12-07T02:12:07;5.63;;;5.13;;
16314;SDS011;8266;52.150;4.768;2023-12-07T02:14:34;5.20;;;4.72;;
16314;SDS011;8266;52.150;4.768;2023-12-07T02:17:04;7.22;;;6.53;;
16314;SDS011;8266;52.150;4.768;2023-12-07T02:19:52;6.32;;;5.30;;
16314;SDS011;8266;52.150;4.768;2023-12-07T02:22:26;6.32;;;5.70;;
16314;SDS011;8266;52.150;4.768;2023-12-07T02:25:03;7.55;;;6.65;;
16314;SDS011;8266;52.150;4.768;2023-12-07T02:27:34;6.78;;;6.00;;
16314;SDS011;8266;52.150;4.768;2023-12-07T02:30:03;7.78;;;6.97;;
16314;SDS011;8266;52.150;4.768;2023-12-07T02:32:30;9.27;;;7.00;;
16314;SDS011;8266;52.150;4.768;2023-12-07T02:34:58;7.88;;;7.07;;
16314;SDS011;8266;52.150;4.768;2023-12-07T02:37:25;9.73;;;7.07;;
16314;SDS011;8266;52.150;4.768;2023-12-07T02:39:55;7.63;;;6.50;;
16314;SDS011;8266;52.150;4.768;2023-12-07T02:42:23;7.47;;;6.32;;
16314;SDS011;8266;52.150;4.768;2023-12-07T02:44:53;6.70;;;5.93;;
16314;SDS011;8266;52.150;4.768;2023-12-07T02:47:20;7.32;;;6.35;;
16314;SDS011;8266;52.150;4.768;2023-12-07T02:49:47;7.97;;;6.03;;
16314;SDS011;8266;52.150;4.768;2023-12-07T02:52:14;8.55;;;7.22;;
16314;SDS011;8266;52.150;4.768;2023-12-07T02:54:41;7.88;;;7.07;;
16314;SDS011;8266;52.150;4.768;2023-12-07T02:57:08;8.65;;;6.57;;
16314;SDS011;8266;52.150;4.768;2023-12-07T02:59:35;8.88;;;6.30;;
16314;SDS011;8266;52.150;4.768;2023-12-07T03:02:04;7.90;;;6.63;;
16314;SDS011;8266;52.150;4.768;2023-12-07T03:04:31;8.05;;;6.65;;
16314;SDS011;8266;52.150;4.768;2023-12-07T03:06:58;6.95;;;6.30;;
16314;SDS011;8266;52.150;4.768;2023-12-07T03:09:25;6.78;;;6.07;;
16314;SDS011;8266;52.150;4.768;2023-12-07T03:11:52;7.78;;;6.90;;
16314;SDS011;8266;52.150;4.768;2023-12-07T03:14:19;6.65;;;5.95;;
16314;SDS011;8266;52.150;4.768;2023-12-07T03:16:46;8.45;;;6.72;;
16314;SDS011;8266;52.150;4.768;2023-12-07T03:19:15;8.13;;;7.13;;
16314;SDS011;8266;52.150;4.768;2023-12-07T03:21:42;7.50;;;6.55;;
16314;SDS011;8266;52.150;4.768;2023-12-07T03:24:09;9.05;;;6.97;;
16314;SDS011;8266;52.150;4.768;2023-12-07T03:26:36;7.32;;;6.63;;
16314;SDS011;8266;52.150;4.768;2023-12-07T03:29:03;8.38;;;6.55;;
16314;SDS011;8266;52.150;4.768;2023-12-07T03:31:30;7.10;;;6.22;;
16314;SDS011;8266;52.150;4.768;2023-12-07T03:33:57;7.72;;;6.00;;
16314;SDS011;8266;52.150;4.768;2023-12-07T03:36:27;6.15;;;5.55;;
16314;SDS011;8266;52.150;4.768;2023-12-07T03:38:54;6.63;;;5.97;;
16314;SDS011;8266;52.150;4.768;2023-12-07T03:41:21;6.20;;;5.60;;
16314;SDS011;8266;52.150;4.768;2023-12-07T03:43:48;7.25;;;6.55;;
16314;SDS011;8266;52.150;4.768;2023-12-07T03:46:16;8.40;;;6.40;;
16314;SDS011;8266;52.150;4.768;2023-12-07T03:48:43;8.40;;;6.68;;
16314;SDS011;8266;52.150;4.768;2023-12-07T03:51:12;7.07;;;6.38;;
16314;SDS011;8266;52.150;4.768;2023-12-07T03:53:41;6.85;;;6.20;;
16314;SDS011;8266;52.150;4.768;2023-12-07T03:56:09;7.80;;;6.40;;
16314;SDS011;8266;52.150;4.768;2023-12-07T03:58:36;7.65;;;6.72;;
16314;SDS011;8266;52.150;4.768;2023-12-07T04:01:03;7.15;;;6.45;;
16314;SDS011;8266;52.150;4.768;2023-12-07T04:03:31;7.53;;;6.80;;
16314;SDS011;8266;52.150;4.768;2023-12-07T04:05:58;7.82;;;6.63;;
16314;SDS011;8266;52.150;4.768;2023-12-07T04:08:25;6.72;;;6.03;;
16314;SDS011;8266;52.150;4.768;2023-12-07T04:10:54;6.43;;;5.65;;
16314;SDS011;8266;52.150;4.768;2023-12-07T04:13:21;6.60;;;5.03;;
16314;SDS011;8266;52.150;4.768;2023-12-07T04:15:48;7.40;;;5.78;;
16314;SDS011;8266;52.150;4.768;2023-12-07T04:18:15;6.57;;;5.97;;
16314;SDS011;8266;52.150;4.768;2023-12-07T04:20:42;8.40;;;6.75;;
16314;SDS011;8266;52.150;4.768;2023-12-07T04:23:09;8.60;;;6.95;;
16314;SDS011;8266;52.150;4.768;2023-12-07T04:25:36;7.28;;;6.55;;
16314;SDS011;8266;52.150;4.768;2023-12-07T04:28:04;7.75;;;6.30;;
16314;SDS011;8266;52.150;4.768;2023-12-07T04:30:31;7.55;;;6.75;;
16314;SDS011;8266;52.150;4.768;2023-12-07T04:32:58;7.32;;;6.63;;
16314;SDS011;8266;52.150;4.768;2023-12-07T04:35:25;7.00;;;6.30;;
16314;SDS011;8266;52.150;4.768;2023-12-07T04:37:53;7.40;;;6.47;;
16314;SDS011;8266;52.150;4.768;2023-12-07T04:40:20;7.00;;;6.30;;
16314;SDS011;8266;52.150;4.768;2023-12-07T04:42:47;8.85;;;6.93;;
16314;SDS011;8266;52.150;4.768;2023-12-07T04:45:16;8.30;;;7.10;;
16314;SDS011;8266;52.150;4.768;2023-12-07T04:47:43;7.80;;;7.03;;
16314;SDS011;8266;52.150;4.768;2023-12-07T04:50:11;8.70;;;6.85;;
16314;SDS011;8266;52.150;4.768;2023-12-07T04:52:38;9.18;;;7.40;;
16314;SDS011;8266;52.150;4.768;2023-12-07T04:55:06;8.45;;;6.70;;
16314;SDS011;8266;52.150;4.768;2023-12-07T04:57:34;11.73;;;7.60;;
16314;SDS011;8266;52.150;4.768;2023-12-07T05:00:01;7.47;;;6.78;;
16314;SDS011;8266;52.150;4.768;2023-12-07T05:02:32;10.07;;;7.78;;
16314;SDS011;8266;52.150;4.768;2023-12-07T05:04:59;9.60;;;8.57;;
16314;SDS011;8266;52.150;4.768;2023-12-07T05:07:26;10.07;;;7.93;;
16314;SDS011;8266;52.150;4.768;2023-12-07T05:09:53;10.27;;;7.97;;
16314;SDS011;8266;52.150;4.768;2023-12-07T05:12:20;12.25;;;8.50;;
16314;SDS011;8266;52.150;4.768;2023-12-07T05:14:47;10.15;;;9.02;;
16314;SDS011;8266;52.150;4.768;2023-12-07T05:17:15;18.33;;;10.10;;
16314;SDS011;8266;52.150;4.768;2023-12-07T05:19:44;33.63;;;12.32;;
16314;SDS011;8266;52.150;4.768;2023-12-07T05:22:11;99.28;;;16.00;;
16314;SDS011;8266;52.150;4.768;2023-12-07T05:24:38;77.90;;;13.93;;
16314;SDS011;8266;52.150;4.768;2023-12-07T05:27:05;99.85;;;15.52;;
16314;SDS011;8266;52.150;4.768;2023-12-07T05:29:32;127.32;;;14.38;;
16314;SDS011;8266;52.150;4.768;2023-12-07T05:31:59;61.33;;;11.63;;
16314;SDS011;8266;52.150;4.768;2023-12-07T05:34:26;52.25;;;11.10;;
16314;SDS011;8266;52.150;4.768;2023-12-07T05:36:55;28.98;;;10.52;;
16314;SDS011;8266;52.150;4.768;2023-12-07T05:39:22;62.95;;;12.02;;
16314;SDS011;8266;52.150;4.768;2023-12-07T05:41:49;54.08;;;12.35;;
16314;SDS011;8266;52.150;4.768;2023-12-07T05:44:16;44.97;;;11.48;;
16314;SDS011;8266;52.150;4.768;2023-12-07T05:46:46;58.70;;;16.88;;
16314;SDS011;8266;52.150;4.768;2023-12-07T05:49:13;68.03;;;16.98;;
16314;SDS011;8266;52.150;4.768;2023-12-07T05:51:40;35.55;;;13.52;;
16314;SDS011;8266;52.150;4.768;2023-12-07T05:54:09;47.60;;;13.55;;
16314;SDS011;8266;52.150;4.768;2023-12-07T05:56:36;37.75;;;14.07;;
16314;SDS011;8266;52.150;4.768;2023-12-07T05:59:03;43.10;;;12.80;;
16314;SDS011;8266;52.150;4.768;2023-12-07T06:01:31;52.85;;;14.50;;
16314;SDS011;8266;52.150;4.768;2023-12-07T06:03:58;57.92;;;15.38;;
16314;SDS011;8266;52.150;4.768;2023-12-07T06:06:25;49.22;;;14.73;;
16314;SDS011;8266;52.150;4.768;2023-12-07T06:08:52;50.67;;;16.58;;
16314;SDS011;8266;52.150;4.768;2023-12-07T06:11:21;68.80;;;15.77;;
16314;SDS011;8266;52.150;4.768;2023-12-07T06:13:48;64.15;;;17.30;;
16314;SDS011;8266;52.150;4.768;2023-12-07T06:16:15;43.53;;;17.83;;
16314;SDS011;8266;52.150;4.768;2023-12-07T06:18:43;55.67;;;16.83;;
16314;SDS011;8266;52.150;4.768;2023-12-07T06:21:13;67.57;;;17.50;;
16314;SDS011;8266;52.150;4.768;2023-12-07T06:23:40;79.50;;;17.63;;
16314;SDS011;8266;52.150;4.768;2023-12-07T06:26:14;61.22;;;17.45;;
16314;SDS011;8266;52.150;4.768;2023-12-07T06:28:42;41.72;;;17.17;;
16314;SDS011;8266;52.150;4.768;2023-12-07T06:31:09;38.53;;;13.43;;
16314;SDS011;8266;52.150;4.768;2023-12-07T06:33:37;39.55;;;15.88;;
16314;SDS011;8266;52.150;4.768;2023-12-07T06:36:04;20.98;;;11.88;;
16314;SDS011;8266;52.150;4.768;2023-12-07T06:38:32;39.50;;;12.10;;
16314;SDS011;8266;52.150;4.768;2023-12-07T06:40:59;26.80;;;11.02;;
16314;SDS011;8266;52.150;4.768;2023-12-07T06:43:26;34.03;;;12.45;;
16314;SDS011;8266;52.150;4.768;2023-12-07T06:45:54;29.80;;;11.77;;
16314;SDS011;8266;52.150;4.768;2023-12-07T06:48:22;45.92;;;13.27;;
16314;SDS011;8266;52.150;4.768;2023-12-07T06:50:48;42.75;;;13.40;;
16314;SDS011;8266;52.150;4.768;2023-12-07T06:53:16;53.50;;;12.65;;
16314;SDS011;8266;52.150;4.768;2023-12-07T06:55:44;51.85;;;14.25;;
16314;SDS011;8266;52.150;4.768;2023-12-07T06:58:11;33.63;;;11.93;;
16314;SDS011;8266;52.150;4.768;2023-12-07T07:00:38;60.13;;;13.35;;
16314;SDS011;8266;52.150;4.768;2023-12-07T07:03:07;59.50;;;15.07;;
16314;SDS011;8266;52.150;4.768;2023-12-07T07:05:34;44.30;;;12.23;;
16314;SDS011;8266;52.150;4.768;2023-12-07T07:08:01;39.97;;;11.95;;
16314;SDS011;8266;52.150;4.768;2023-12-07T07:10:28;47.38;;;12.60;;
16314;SDS011;8266;52.150;4.768;2023-12-07T07:12:59;43.85;;;12.77;;
16314;SDS011;8266;52.150;4.768;2023-12-07T07:15:26;41.75;;;12.10;;
16314;SDS011;8266;52.150;4.768;2023-12-07T07:17:53;28.90;;;11.57;;
16314;SDS011;8266;52.150;4.768;2023-12-07T07:20:21;53.72;;;13.00;;
16314;SDS011;8266;52.150;4.768;2023-12-07T07:22:48;53.47;;;12.25;;
16314;SDS011;8266;52.150;4.768;2023-12-07T07:25:15;40.33;;;12.40;;
16314;SDS011;8266;52.150;4.768;2023-12-07T07:27:44;45.78;;;14.63;;
16314;SDS011;8266;52.150;4.768;2023-12-07T07:30:11;76.50;;;15.27;;
16314;SDS011;8266;52.150;4.768;2023-12-07T07:32:39;61.50;;;15.10;;
16314;SDS011;8266;52.150;4.768;2023-12-07T07:35:07;65.95;;;13.98;;
16314;SDS011;8266;52.150;4.768;2023-12-07T07:37:38;33.08;;;11.30;;
16314;SDS011;8266;52.150;4.768;2023-12-07T07:40:06;50.85;;;12.73;;
16314;SDS011;8266;52.150;4.768;2023-12-07T07:42:36;48.42;;;11.52;;
16314;SDS011;8266;52.150;4.768;2023-12-07T07:45:05;55.63;;;11.32;;
16314;SDS011;8266;52.150;4.768;2023-12-07T07:47:33;53.47;;;10.35;;
16314;SDS011;8266;52.150;4.768;2023-12-07T07:50:00;43.10;;;10.27;;
16314;SDS011;8266;52.150;4.768;2023-12-07T07:52:30;68.72;;;13.10;;
16314;SDS011;8266;52.150;4.768;2023-12-07T07:54:59;76.68;;;11.60;;
16314;SDS011;8266;52.150;4.768;2023-12-07T07:57:27;53.08;;;10.98;;
16314;SDS011;8266;52.150;4.768;2023-12-07T07:59:55;39.15;;;9.77;;
16314;SDS011;8266;52.150;4.768;2023-12-07T08:02:23;36.03;;;10.43;;
16314;SDS011;8266;52.150;4.768;2023-12-07T08:04:50;33.75;;;9.85;;
16314;SDS011;8266;52.150;4.768;2023-12-07T08:07:17;61.50;;;11.15;;
16314;SDS011;8266;52.150;4.768;2023-12-07T08:09:44;61.78;;;11.90;;
16314;SDS011;8266;52.150;4.768;2023-12-07T08:12:12;40.75;;;11.38;;
16314;SDS011;8266;52.150;4.768;2023-12-07T08:14:40;35.00;;;10.38;;
16314;SDS011;8266;52.150;4.768;2023-12-07T08:17:08;40.60;;;10.20;;
16314;SDS011;8266;52.150;4.768;2023-12-07T08:19:35;56.20;;;10.88;;
16314;SDS011;8266;52.150;4.768;2023-12-07T08:22:03;45.60;;;11.68;;
16314;SDS011;8266;52.150;4.768;2023-12-07T08:24:30;47.58;;;10.77;;
16314;SDS011;8266;52.150;4.768;2023-12-07T08:26:57;44.70;;;11.05;;
16314;SDS011;8266;52.150;4.768;2023-12-07T08:29:25;39.35;;;10.90;;
16314;SDS011;8266;52.150;4.768;2023-12-07T08:31:52;45.80;;;10.35;;
16314;SDS011;8266;52.150;4.768;2023-12-07T08:34:19;33.45;;;10.45;;
16314;SDS011;8266;52.150;4.768;2023-12-07T08:36:46;30.60;;;10.82;;
16314;SDS011;8266;52.150;4.768;2023-12-07T08:39:14;46.08;;;10.77;;
16314;SDS011;8266;52.150;4.768;2023-12-07T08:41:41;34.97;;;9.70;;
16314;SDS011;8266;52.150;4.768;2023-12-07T08:44:08;37.72;;;9.95;;
16314;SDS011;8266;52.150;4.768;2023-12-07T08:46:36;37.08;;;9.77;;
16314;SDS011;8266;52.150;4.768;2023-12-07T08:49:03;20.70;;;7.57;;
16314;SDS011;8266;52.150;4.768;2023-12-07T08:51:31;23.23;;;8.52;;
16314;SDS011;8266;52.150;4.768;2023-12-07T08:53:58;29.60;;;8.95;;
16314;SDS011;8266;52.150;4.768;2023-12-07T08:56:25;19.80;;;8.98;;
16314;SDS011;8266;52.150;4.768;2023-12-07T08:58:52;15.32;;;7.60;;
16314;SDS011;8266;52.150;4.768;2023-12-07T09:01:19;21.27;;;7.93;;
16314;SDS011;8266;52.150;4.768;2023-12-07T09:03:47;23.13;;;9.15;;
16314;SDS011;8266;52.150;4.768;2023-12-07T09:06:14;25.77;;;9.68;;
16314;SDS011;8266;52.150;4.768;2023-12-07T09:08:41;32.22;;;9.75;;
16314;SDS011;8266;52.150;4.768;2023-12-07T09:11:08;31.55;;;9.60;;
16314;SDS011;8266;52.150;4.768;2023-12-07T09:13:35;41.05;;;9.23;;
16314;SDS011;8266;52.150;4.768;2023-12-07T09:16:02;35.72;;;8.45;;
16314;SDS011;8266;52.150;4.768;2023-12-07T09:18:30;31.00;;;9.93;;
16314;SDS011;8266;52.150;4.768;2023-12-07T09:20:58;31.35;;;9.48;;
16314;SDS011;8266;52.150;4.768;2023-12-07T09:23:25;41.00;;;9.55;;
16314;SDS011;8266;52.150;4.768;2023-12-07T09:25:53;39.83;;;10.02;;
16314;SDS011;8266;52.150;4.768;2023-12-07T09:28:19;33.13;;;8.73;;
16314;SDS011;8266;52.150;4.768;2023-12-07T09:30:47;17.90;;;8.55;;
16314;SDS011;8266;52.150;4.768;2023-12-07T09:33:14;15.57;;;8.25;;
16314;SDS011;8266;52.150;4.768;2023-12-07T09:35:41;26.05;;;8.88;;
16314;SDS011;8266;52.150;4.768;2023-12-07T09:38:10;23.23;;;9.05;;
16314;SDS011;8266;52.150;4.768;2023-12-07T09:40:37;34.25;;;9.57;;
16314;SDS011;8266;52.150;4.768;2023-12-07T09:43:04;23.15;;;9.82;;
16314;SDS011;8266;52.150;4.768;2023-12-07T09:45:31;26.17;;;11.23;;
16314;SDS011;8266;52.150;4.768;2023-12-07T09:47:59;20.67;;;10.80;;
16314;SDS011;8266;52.150;4.768;2023-12-07T09:50:27;21.73;;;11.07;;
16314;SDS011;8266;52.150;4.768;2023-12-07T09:52:54;39.03;;;11.82;;
16314;SDS011;8266;52.150;4.768;2023-12-07T09:55:24;49.13;;;12.18;;
16314;SDS011;8266;52.150;4.768;2023-12-07T09:57:51;34.47;;;12.02;;
16314;SDS011;8266;52.150;4.768;2023-12-07T10:00:22;30.48;;;13.15;;
16314;SDS011;8266;52.150;4.768;2023-12-07T10:02:49;26.85;;;13.20;;
16314;SDS011;8266;52.150;4.768;2023-12-07T10:05:16;30.02;;;12.55;;
16314;SDS011;8266;52.150;4.768;2023-12-07T10:07:45;31.65;;;13.73;;
16314;SDS011;8266;52.150;4.768;2023-12-07T10:10:13;45.28;;;15.23;;
16314;SDS011;8266;52.150;4.768;2023-12-07T10:12:47;35.92;;;13.93;;
16314;SDS011;8266;52.150;4.768;2023-12-07T10:15:17;48.95;;;14.82;;
16314;SDS011;8266;52.150;4.768;2023-12-07T10:17:46;31.02;;;13.50;;
16314;SDS011;8266;52.150;4.768;2023-12-07T10:20:15;27.38;;;12.55;;
16314;SDS011;8266;52.150;4.768;2023-12-07T10:22:42;48.63;;;14.70;;
16314;SDS011;8266;52.150;4.768;2023-12-07T10:25:11;35.20;;;13.45;;
16314;SDS011;8266;52.150;4.768;2023-12-07T10:27:39;32.35;;;14.68;;
16314;SDS011;8266;52.150;4.768;2023-12-07T10:30:10;33.55;;;12.95;;
16314;SDS011;8266;52.150;4.768;2023-12-07T10:32:38;35.70;;;13.25;;
16314;SDS011;8266;52.150;4.768;2023-12-07T10:35:08;50.53;;;13.50;;
16314;SDS011;8266;52.150;4.768;2023-12-07T10:37:36;41.80;;;13.02;;
16314;SDS011;8266;52.150;4.768;2023-12-07T10:40:04;37.38;;;13.18;;
16314;SDS011;8266;52.150;4.768;2023-12-07T10:42:33;42.10;;;13.10;;
16314;SDS011;8266;52.150;4.768;2023-12-07T10:45:05;55.88;;;14.50;;
16314;SDS011;8266;52.150;4.768;2023-12-07T10:47:36;43.58;;;14.02;;
16314;SDS011;8266;52.150;4.768;2023-12-07T10:50:05;38.97;;;14.55;;
16314;SDS011;8266;52.150;4.768;2023-12-07T10:52:36;33.33;;;13.25;;
16314;SDS011;8266;52.150;4.768;2023-12-07T10:55:10;36.10;;;12.82;;
16314;SDS011;8266;52.150;4.768;2023-12-07T10:57:42;25.27;;;13.02;;
16314;SDS011;8266;52.150;4.768;2023-12-07T11:00:12;32.35;;;12.27;;
16314;SDS011;8266;52.150;4.768;2023-12-07T11:02:40;43.13;;;12.98;;
16314;SDS011;8266;52.150;4.768;2023-12-07T11:05:09;30.73;;;12.23;;
16314;SDS011;8266;52.150;4.768;2023-12-07T11:07:43;26.85;;;11.57;;
16314;SDS011;8266;52.150;4.768;2023-12-07T11:10:18;20.02;;;11.43;;
16314;SDS011;8266;52.150;4.768;2023-12-07T11:12:53;22.67;;;12.95;;
16314;SDS011;8266;52.150;4.768;2023-12-07T11:15:26;35.47;;;12.88;;
16314;SDS011;8266;52.150;4.768;2023-12-07T11:17:55;26.35;;;12.57;;
16314;SDS011;8266;52.150;4.768;2023-12-07T11:20:31;32.17;;;13.00;;
16314;SDS011;8266;52.150;4.768;2023-12-07T11:23:05;24.83;;;13.73;;
16314;SDS011;8266;52.150;4.768;2023-12-07T11:25:33;23.13;;;13.15;;
16314;SDS011;8266;52.150;4.768;2023-12-07T11:28:00;24.65;;;13.63;;
16314;SDS011;8266;52.150;4.768;2023-12-07T11:30:28;20.45;;;13.30;;
16314;SDS011;8266;52.150;4.768;2023-12-07T11:32:58;17.27;;;12.90;;
16314;SDS011;8266;52.150;4.768;2023-12-07T11:35:26;21.50;;;13.07;;
16314;SDS011;8266;52.150;4.768;2023-12-07T11:38:00;24.33;;;14.02;;
16314;SDS011;8266;52.150;4.768;2023-12-07T11:40:30;22.77;;;13.48;;
16314;SDS011;8266;52.150;4.768;2023-12-07T11:42:58;24.17;;;13.07;;
16314;SDS011;8266;52.150;4.768;2023-12-07T11:45:36;21.83;;;14.25;;
16314;SDS011;8266;52.150;4.768;2023-12-07T11:48:09;18.00;;;12.25;;
16314;SDS011;8266;52.150;4.768;2023-12-07T11:53:21;27.58;;;13.93;;
16314;SDS011;8266;52.150;4.768;2023-12-07T11:55:49;20.70;;;13.23;;
16314;SDS011;8266;52.150;4.768;2023-12-07T11:58:16;20.85;;;13.95;;
16314;SDS011;8266;52.150;4.768;2023-12-07T12:00:43;26.73;;;15.02;;
16314;SDS011;8266;52.150;4.768;2023-12-07T12:03:13;21.70;;;13.35;;
16314;SDS011;8266;52.150;4.768;2023-12-07T12:05:40;22.88;;;14.88;;
16314;SDS011;8266;52.150;4.768;2023-12-07T12:08:09;20.75;;;14.98;;
16314;SDS011;8266;52.150;4.768;2023-12-07T12:10:36;18.33;;;13.90;;
16314;SDS011;8266;52.150;4.768;2023-12-07T12:13:04;20.88;;;14.73;;
16314;SDS011;8266;52.150;4.768;2023-12-07T12:15:31;22.10;;;15.00;;
16314;SDS011;8266;52.150;4.768;2023-12-07T12:17:59;19.80;;;14.60;;
16314;SDS011;8266;52.150;4.768;2023-12-07T12:20:29;19.42;;;14.52;;
16314;SDS011;8266;52.150;4.768;2023-12-07T12:22:56;23.38;;;16.88;;
16314;SDS011;8266;52.150;4.768;2023-12-07T12:25:25;23.20;;;16.85;;
16314;SDS011;8266;52.150;4.768;2023-12-07T12:27:55;20.98;;;15.98;;
16314;SDS011;8266;52.150;4.768;2023-12-07T12:30:24;21.85;;;16.42;;
16314;SDS011;8266;52.150;4.768;2023-12-07T12:32:51;22.00;;;15.07;;
16314;SDS011;8266;52.150;4.768;2023-12-07T12:35:18;23.50;;;17.17;;
16314;SDS011;8266;52.150;4.768;2023-12-07T12:37:47;23.27;;;16.38;;
16314;SDS011;8266;52.150;4.768;2023-12-07T12:40:15;19.95;;;15.07;;
16314;SDS011;8266;52.150;4.768;2023-12-07T12:42:44;20.35;;;15.45;;
16314;SDS011;8266;52.150;4.768;2023-12-07T12:45:12;21.15;;;15.65;;
16314;SDS011;8266;52.150;4.768;2023-12-07T12:47:40;18.08;;;14.32;;
16314;SDS011;8266;52.150;4.768;2023-12-07T12:50:08;18.73;;;15.20;;
16314;SDS011;8266;52.150;4.768;2023-12-07T12:52:36;19.02;;;15.30;;
16314;SDS011;8266;52.150;4.768;2023-12-07T12:55:08;20.70;;;15.10;;
16314;SDS011;8266;52.150;4.768;2023-12-07T12:57:36;21.38;;;15.70;;
16314;SDS011;8266;52.150;4.768;2023-12-07T13:00:04;18.45;;;14.07;;
16314;SDS011;8266;52.150;4.768;2023-12-07T13:02:33;18.30;;;14.55;;
16314;SDS011;8266;52.150;4.768;2023-12-07T13:05:00;18.80;;;13.98;;
16314;SDS011;8266;52.150;4.768;2023-12-07T13:07:28;18.90;;;14.32;;
16314;SDS011;8266;52.150;4.768;2023-12-07T13:09:55;18.35;;;14.18;;
16314;SDS011;8266;52.150;4.768;2023-12-07T13:12:24;20.10;;;15.00;;
16314;SDS011;8266;52.150;4.768;2023-12-07T13:14:53;17.73;;;14.63;;
16314;SDS011;8266;52.150;4.768;2023-12-07T13:17:20;18.60;;;14.52;;
16314;SDS011;8266;52.150;4.768;2023-12-07T13:19:47;18.55;;;14.30;;
16314;SDS011;8266;52.150;4.768;2023-12-07T13:22:14;19.17;;;14.68;;
16314;SDS011;8266;52.150;4.768;2023-12-07T13:24:41;16.75;;;14.10;;
16314;SDS011;8266;52.150;4.768;2023-12-07T13:27:08;21.42;;;15.27;;
16314;SDS011;8266;52.150;4.768;2023-12-07T13:29:37;19.48;;;14.85;;
16314;SDS011;8266;52.150;4.768;2023-12-07T13:32:04;23.08;;;15.00;;
16314;SDS011;8266;52.150;4.768;2023-12-07T13:34:32;23.17;;;15.50;;
16314;SDS011;8266;52.150;4.768;2023-12-07T13:36:59;18.95;;;14.50;;
16314;SDS011;8266;52.150;4.768;2023-12-07T13:39:26;16.80;;;13.43;;
16314;SDS011;8266;52.150;4.768;2023-12-07T13:41:54;21.83;;;15.65;;
16314;SDS011;8266;52.150;4.768;2023-12-07T13:44:21;19.15;;;14.63;;
16314;SDS011;8266;52.150;4.768;2023-12-07T13:46:50;17.92;;;14.32;;
16314;SDS011;8266;52.150;4.768;2023-12-07T13:49:19;17.45;;;14.00;;
16314;SDS011;8266;52.150;4.768;2023-12-07T13:51:46;18.63;;;13.85;;
16314;SDS011;8266;52.150;4.768;2023-12-07T13:57:34;17.00;;;13.35;;
16314;SDS011;8266;52.150;4.768;2023-12-07T14:00:01;17.77;;;14.77;;
16314;SDS011;8266;52.150;4.768;2023-12-07T14:02:30;18.73;;;14.45;;
16314;SDS011;8266;52.150;4.768;2023-12-07T14:04:57;19.77;;;15.05;;
16314;SDS011;8266;52.150;4.768;2023-12-07T14:07:24;18.92;;;14.85;;
16314;SDS011;8266;52.150;4.768;2023-12-07T14:09:51;18.25;;;14.32;;
16314;SDS011;8266;52.150;4.768;2023-12-07T14:12:18;15.20;;;12.90;;
16314;SDS011;8266;52.150;4.768;2023-12-07T14:14:46;19.23;;;14.50;;
16314;SDS011;8266;52.150;4.768;2023-12-07T14:17:14;21.05;;;14.63;;
16314;SDS011;8266;52.150;4.768;2023-12-07T14:19:44;18.15;;;14.73;;
16314;SDS011;8266;52.150;4.768;2023-12-07T14:22:12;21.02;;;15.35;;
16314;SDS011;8266;52.150;4.768;2023-12-07T14:24:39;19.58;;;14.55;;
16314;SDS011;8266;52.150;4.768;2023-12-07T14:27:07;21.85;;;16.02;;
16314;SDS011;8266;52.150;4.768;2023-12-07T14:29:34;19.52;;;15.60;;
16314;SDS011;8266;52.150;4.768;2023-12-07T14:32:01;19.02;;;14.95;;
16314;SDS011;8266;52.150;4.768;2023-12-07T14:34:29;24.33;;;16.42;;
16314;SDS011;8266;52.150;4.768;2023-12-07T14:36:57;20.73;;;15.45;;
16314;SDS011;8266;52.150;4.768;2023-12-07T14:39:24;18.45;;;15.40;;
16314;SDS011;8266;52.150;4.768;2023-12-07T14:41:52;20.40;;;15.75;;
16314;SDS011;8266;52.150;4.768;2023-12-07T14:44:21;22.27;;;15.43;;
16314;SDS011;8266;52.150;4.768;2023-12-07T14:46:48;21.65;;;16.00;;
16314;SDS011;8266;52.150;4.768;2023-12-07T14:49:16;21.48;;;16.02;;
16314;SDS011;8266;52.150;4.768;2023-12-07T14:51:46;17.17;;;15.00;;
16314;SDS011;8266;52.150;4.768;2023-12-07T14:54:15;20.38;;;15.88;;
16314;SDS011;8266;52.150;4.768;2023-12-07T14:56:42;19.92;;;14.63;;